Time;durP1;ratioP1;P1;durP2;ratioP2;P2;SDS_P1;SDS_P2;PMS_P1;PMS_P2;Temp;Humidity;BMP_temperature;BMP_pressure;BME280_temperature;BME280_humidity;BME280_pressure;Samples;Min_cycle;Max_cycle;Signal;HPM_P1;HPM_P2
2023/01/03 00:04:46;;;;;;;13.45;5.57;;;;;;;10.24;64.80;100726.66;30982790;28;96760;-67
2023/01/03 00:19:46;;;;;;;10.75;6.15;;;;;;;10.35;64.58;100773.50;30981028;28;97628;-67
2023/01/03 00:34:47;;;;;;;9.65;6.13;;;;;;;10.25;64.47;100777.09;30979671;28;97612;-67
2023/01/03 00:49:47;;;;;;;8.77;5.15;;;;;;;10.01;65.79;100792.84;30978524;28;96849;-67
2023/01/03 01:04:48;;;;;;;11.48;5.47;;;;;;;9.58;66.31;100819.16;30977596;28;96750;-67
2023/01/03 01:19:48;;;;;;;7.38;4.35;;;;;;;9.19;68.26;100845.94;30976560;28;97153;-67
2023/01/03 01:34:48;;;;;;;5.88;3.30;;;;;;;8.99;69.21;100864.56;30975559;28;97307;-67
2023/01/03 01:50:04;;;;;;;6.30;3.75;;;;;;;8.65;70.28;100849.09;30993385;28;96906;-67
2023/01/03 02:05:07;;;;;;;8.47;4.53;;;;;;;8.60;71.70;100869.97;30994736;28;96716;-67
2023/01/03 02:20:25;;;;;;;8.93;4.20;;;;;;;8.70;71.99;100901.81;30992449;28;97434;-67
2023/01/03 02:35:32;;;;;;;7.50;4.00;;;;;;;8.62;72.31;100924.63;30991665;28;96949;-67
2023/01/03 02:50:40;;;;;;;5.40;3.13;;;;;;;8.60;73.08;100929.22;30989313;28;96791;-67
2023/01/03 03:05:55;;;;;;;7.13;3.33;;;;;;;8.54;73.66;100945.69;30989096;28;96663;-67
2023/01/03 03:36:45;;;;;;;3.80;2.17;;;;;;;8.52;73.16;100965.41;30985516;28;97063;-67
2023/01/03 03:51:48;;;;;;;4.67;2.03;;;;;;;8.49;73.64;100984.25;30982008;28;97137;-67
2023/01/03 04:06:50;;;;;;;4.33;2.40;;;;;;;8.61;73.70;100994.63;30980682;28;96778;-67
2023/01/03 04:21:51;;;;;;;3.63;1.90;;;;;;;8.43;73.33;101006.84;30980242;28;97612;-67
2023/01/03 04:36:51;;;;;;;3.42;2.10;;;;;;;8.05;73.83;101030.50;30975245;28;96945;-67
2023/01/03 04:51:51;;;;;;;4.40;2.10;;;;;;;7.76;73.57;101063.03;30966863;28;97068;-68
2023/01/03 05:06:52;;;;;;;3.65;1.85;;;;;;;7.57;74.08;101068.19;30972060;28;96694;-66
2023/01/03 05:37:11;;;;;;;4.73;2.40;;;;;;;7.66;74.57;101082.50;30989045;28;97029;-68
2023/01/03 05:52:12;;;;;;;4.93;2.47;;;;;;;7.68;74.43;101107.06;30987420;28;96721;-67
2023/01/03 06:07:12;;;;;;;4.90;2.10;;;;;;;7.82;75.06;101132.44;30987323;28;97015;-67
2023/01/03 06:22:12;;;;;;;6.38;1.98;;;;;;;7.89;75.09;101146.88;30987212;28;96654;-65
2023/01/03 06:37:13;;;;;;;4.63;2.65;;;;;;;7.86;75.06;101163.03;30985126;28;96707;-66
2023/01/03 07:07:34;;;;;;;8.33;3.83;;;;;;;8.03;74.92;101207.56;30981161;28;97795;-64
2023/01/03 07:22:35;;;;;;;7.90;3.13;;;;;;;8.08;74.67;101218.66;30979899;28;96730;-64
2023/01/03 07:37:35;;;;;;;6.15;4.05;;;;;;;8.23;74.84;101236.91;30978994;28;97763;-69
2023/01/03 07:52:35;;;;;;;7.22;4.20;;;;;;;8.31;74.27;101239.78;30975511;28;97083;-65
2023/01/03 08:07:36;;;;;;;6.22;3.70;;;;;;;8.40;73.74;101252.25;30975944;28;96614;-65
2023/01/03 08:22:36;;;;;;;5.43;3.50;;;;;;;8.55;73.65;101265.25;30973751;28;96651;-69
2023/01/03 08:37:37;;;;;;;6.03;3.53;;;;;;;8.85;73.01;101282.19;30971850;28;97206;-65
2023/01/03 08:52:37;;;;;;;10.50;3.72;;;;;;;9.00;71.88;101295.97;30968929;28;96677;-65
2023/01/03 09:07:37;;;;;;;7.50;3.63;;;;;;;9.21;71.36;101315.34;30971012;28;97256;-64
2023/01/03 09:22:38;;;;;;;7.57;4.05;;;;;;;9.22;71.20;101326.84;30967399;28;97416;-64
2023/01/03 09:37:38;;;;;;;8.80;3.80;;;;;;;9.13;70.73;101339.97;30967023;28;97793;-65
2023/01/03 10:08:18;;;;;;;6.33;3.67;;;;;;;9.44;69.45;101350.56;30982890;28;97415;-65
2023/01/03 10:23:18;;;;;;;6.13;3.43;;;;;;;8.98;69.41;101341.28;30986236;28;96797;-65
2023/01/03 10:38:21;;;;;;;5.88;3.53;;;;;;;8.97;69.60;101344.91;30985061;28;97364;-68
2023/01/03 10:53:22;;;;;;;4.27;3.03;;;;;;;9.38;68.85;101327.19;30984325;28;97613;-66
2023/01/03 11:08:47;;;;;;;6.33;3.03;;;;;;;9.59;67.70;101324.44;30982783;28;97086;-70
2023/01/03 11:24:07;;;;;;;3.63;2.53;;;;;;;11.89;63.19;101315.59;30982166;28;96759;-65
2023/01/03 11:39:29;;;;;;;4.47;2.93;;;;;;;15.34;56.23;101314.22;30979912;28;96699;-63
2023/01/03 11:54:35;;;;;;;5.57;3.23;;;;;;;12.47;58.64;101314.28;30977119;28;97484;-64
2023/01/03 12:10:05;;;;;;;4.57;2.73;;;;;;;20.89;49.71;101310.75;30976886;28;96821;-64
2023/01/03 12:25:29;;;;;;;3.17;2.37;;;;;;;12.94;49.98;101312.25;30974269;28;97395;-64
2023/01/03 12:41:00;;;;;;;5.63;2.60;;;;;;;12.98;51.09;101302.94;30975198;28;97392;-63
2023/01/03 12:56:10;;;;;;;8.03;2.83;;;;;;;13.56;49.46;101284.47;30968405;28;97451;-64
2023/01/03 13:11:38;;;;;;;3.10;2.20;;;;;;;12.07;51.14;101286.25;30970709;28;97475;-65
2023/01/03 13:27:16;;;;;;;6.67;3.27;;;;;;;10.67;52.64;101287.22;30971188;28;97385;-65
2023/01/03 13:42:34;;;;;;;7.53;2.83;;;;;;;10.62;54.13;101282.31;30979383;28;96858;-66
2023/01/03 13:57:37;;;;;;;5.20;3.63;;;;;;;9.93;54.22;101293.97;30977274;28;97048;-66
2023/01/03 14:13:09;;;;;;;5.30;3.03;;;;;;;9.28;55.72;101323.63;30984145;28;97060;-66
2023/01/03 14:28:24;;;;;;;10.30;4.30;;;;;;;8.44;57.03;101322.72;30984575;28;97136;-65
2023/01/03 14:43:26;;;;;;;7.73;3.37;;;;;;;8.85;57.62;101340.66;30977616;28;96792;-65
2023/01/03 14:58:33;;;;;;;8.10;3.63;;;;;;;7.88;58.91;101341.53;30976179;28;97200;-66
2023/01/03 15:13:35;;;;;;;8.97;4.83;;;;;;;7.65;60.68;101373.38;30971848;28;97218;-65
2023/01/03 15:28:48;;;;;;;8.60;4.50;;;;;;;7.55;61.40;101373.28;30972818;28;97232;-65
2023/01/03 15:43:49;;;;;;;8.30;4.10;;;;;;;7.16;62.43;101382.53;30967143;28;97022;-65
2023/01/03 15:58:52;;;;;;;10.80;5.32;;;;;;;6.58;63.41;101401.91;30972146;28;96768;-65
2023/01/03 16:14:01;;;;;;;10.30;7.17;;;;;;;5.98;64.63;101408.94;30976572;28;96743;-66
2023/01/03 16:29:02;;;;;;;15.98;7.38;;;;;;;5.57;65.83;101429.38;30973127;28;97215;-66
2023/01/03 16:44:03;;;;;;;14.70;8.30;;;;;;;5.57;66.74;101426.75;30971916;28;96686;-68
2023/01/03 16:59:08;;;;;;;15.43;9.07;;;;;;;5.24;67.53;101430.78;30974357;28;99435;-64
2023/01/03 17:14:16;;;;;;;18.38;11.48;;;;;;;5.01;68.22;101433.16;30982630;28;96882;-73
2023/01/03 17:29:22;;;;;;;27.45;12.13;;;;;;;4.60;68.77;101428.03;30988478;28;96796;-68
2023/01/03 17:44:23;;;;;;;42.05;17.95;;;;;;;4.24;69.51;101448.78;30982730;28;97767;-67
2023/01/03 17:59:24;;;;;;;33.33;15.50;;;;;;;3.99;70.68;101465.28;30979779;28;97360;-68
2023/01/03 18:14:25;;;;;;;39.30;22.40;;;;;;;4.07;71.46;101470.94;30978113;28;96764;-67
2023/01/03 18:29:25;;;;;;;38.70;18.85;;;;;;;4.01;71.88;101472.16;30977948;28;97070;-67
2023/01/03 18:44:26;;;;;;;37.20;20.27;;;;;;;3.94;71.95;101485.81;30981433;28;97609;-67
2023/01/03 18:59:26;;;;;;;46.78;28.70;;;;;;;3.50;72.72;101479.69;30972842;28;97312;-67
2023/01/03 19:14:27;;;;;;;34.47;18.48;;;;;;;3.21;73.60;101484.91;30973458;28;97258;-67
2023/01/03 19:29:35;;;;;;;39.22;21.58;;;;;;;2.96;74.15;101481.09;30972975;28;96868;-67
2023/01/03 19:44:36;;;;;;;35.75;18.65;;;;;;;2.75;74.74;101488.47;30969738;28;97264;-66
2023/01/03 19:59:37;;;;;;;32.75;19.23;;;;;;;2.78;74.90;101488.28;30975445;28;97957;-66
2023/01/03 20:14:40;;;;;;;44.67;20.65;;;;;;;2.44;75.02;101510.38;30974610;28;99691;-73
2023/01/03 20:29:40;;;;;;;36.30;21.35;;;;;;;2.60;75.74;101481.41;30962510;28;98667;-71
2023/01/03 20:44:41;;;;;;;43.20;23.83;;;;;;;2.54;75.57;101487.88;30962387;28;97666;-67
2023/01/03 20:59:42;;;;;;;39.63;23.13;;;;;;;2.17;75.58;101482.03;30965282;28;96965;-69
2023/01/03 21:14:42;;;;;;;40.53;24.15;;;;;;;2.01;76.13;101487.28;30971134;28;96975;-71
2023/01/03 21:29:42;;;;;;;36.40;19.40;;;;;;;2.05;77.21;101480.94;30971095;28;97011;-69
2023/01/03 21:44:43;;;;;;;37.42;21.27;;;;;;;2.06;76.24;101479.16;30972375;28;97933;-71
2023/01/03 21:59:43;;;;;;;41.28;19.90;;;;;;;1.77;76.79;101484.19;30979569;28;96688;-69
2023/01/03 22:14:44;;;;;;;34.42;19.15;;;;;;;1.63;76.83;101488.38;30992468;28;97053;-66
2023/01/03 22:29:45;;;;;;;38.25;21.40;;;;;;;1.54;76.82;101491.50;30950147;28;97506;-73
2023/01/03 22:44:45;;;;;;;41.50;21.95;;;;;;;1.45;77.14;101484.94;30989646;28;96770;-66
2023/01/03 22:59:46;;;;;;;51.20;25.60;;;;;;;1.12;77.14;101491.00;30989314;28;97112;-66
2023/01/03 23:14:46;;;;;;;46.83;24.75;;;;;;;0.90;77.07;101478.06;30987510;28;96976;-74
2023/01/03 23:29:46;;;;;;;46.60;25.85;;;;;;;0.59;76.94;101468.22;30986504;28;96574;-71
2023/01/03 23:44:47;;;;;;;51.00;26.05;;;;;;;0.53;77.99;101463.31;30985143;28;97900;-69
2023/01/03 23:59:47;;;;;;;46.08;24.48;;;;;;;0.37;77.80;101471.03;30983706;28;97358;-69
